createdAt,value
2023-05-21T00:01:42.344Z,15.68
2023-05-21T00:04:13.100Z,20.30
2023-05-21T00:06:41.623Z,34.03
2023-05-21T00:09:10.652Z,17.55
2023-05-21T00:11:39.134Z,15.70
2023-05-21T00:14:08.982Z,16.38
2023-05-21T00:16:37.633Z,15.77
2023-05-21T00:19:06.331Z,16.48
2023-05-21T00:21:34.882Z,16.35
2023-05-21T00:24:03.410Z,16.73
2023-05-21T00:26:31.886Z,16.13
2023-05-21T00:29:00.802Z,14.57
2023-05-21T00:31:30.719Z,21.52
2023-05-21T00:33:59.262Z,22.50
2023-05-21T00:36:27.715Z,24.58
2023-05-21T00:38:56.225Z,20.25
2023-05-21T00:41:25.951Z,16.60
2023-05-21T00:43:54.541Z,15.90
2023-05-21T00:46:24.151Z,15.52
2023-05-21T00:48:54.139Z,15.95
2023-05-21T00:51:22.671Z,16.10
2023-05-21T00:53:52.573Z,16.63
2023-05-21T00:56:21.973Z,16.25
2023-05-21T00:58:51.968Z,15.95
2023-05-21T01:01:20.699Z,16.10
2023-05-21T01:03:49.240Z,15.73
2023-05-21T01:06:20.729Z,15.73
2023-05-21T01:08:50.850Z,16.10
2023-05-21T01:11:20.083Z,16.52
2023-05-21T01:13:49.829Z,16.92
2023-05-21T01:16:18.688Z,17.02
2023-05-21T01:18:47.840Z,17.45
2023-05-21T01:21:17.610Z,16.63
2023-05-21T01:23:47.558Z,17.25
2023-05-21T01:26:16.172Z,16.67
2023-05-21T01:28:44.657Z,16.58
2023-05-21T01:31:25.156Z,15.77
2023-05-21T01:33:56.994Z,17.10
2023-05-21T01:36:28.802Z,17.27
2023-05-21T01:39:03.998Z,17.92
2023-05-21T01:41:35.841Z,16.88
2023-05-21T01:44:07.195Z,16.73
2023-05-21T01:46:37.122Z,16.48
2023-05-21T01:49:07.453Z,17.92
2023-05-21T01:51:36.429Z,18.10
2023-05-21T01:54:06.300Z,17.25
2023-05-21T01:56:37.131Z,16.65
2023-05-21T01:59:05.925Z,16.58
2023-05-21T02:01:34.705Z,16.95
2023-05-21T02:04:03.615Z,17.83
2023-05-21T02:06:32.352Z,16.98
2023-05-21T02:09:00.819Z,17.55
2023-05-21T02:11:30.631Z,18.30
2023-05-21T02:13:59.094Z,17.80
2023-05-21T02:16:27.709Z,17.77
2023-05-21T02:18:57.572Z,18.55
2023-05-21T02:21:26.265Z,17.77
2023-05-21T02:23:54.730Z,19.05
2023-05-21T02:26:23.506Z,19.02
2023-05-21T02:28:54.052Z,19.15
2023-05-21T02:31:22.511Z,19.23
2023-05-21T02:33:51.046Z,18.45
2023-05-21T02:36:19.543Z,19.40
2023-05-21T02:38:48.090Z,19.67
2023-05-21T02:41:16.563Z,19.05
2023-05-21T02:43:45.027Z,19.15
2023-05-21T02:46:14.936Z,19.80
2023-05-21T02:48:43.433Z,20.05
2023-05-21T02:51:11.902Z,19.73
2023-05-21T02:53:40.548Z,19.33
2023-05-21T02:56:09.135Z,19.63
2023-05-21T02:58:37.638Z,20.20
2023-05-21T03:01:06.181Z,20.80
2023-05-21T03:03:36.372Z,19.70
2023-05-21T03:06:05.121Z,20.63
2023-05-21T03:08:33.626Z,21.25
2023-05-21T03:11:02.076Z,21.70
2023-05-21T03:13:30.606Z,20.98
2023-05-21T03:15:59.122Z,20.55
2023-05-21T03:18:27.628Z,21.17
2023-05-21T03:20:59.057Z,21.40
2023-05-21T03:23:27.971Z,21.02
2023-05-21T03:25:56.454Z,20.05
2023-05-21T03:28:24.918Z,22.77
2023-05-21T03:30:53.599Z,21.98
2023-05-21T03:33:22.934Z,22.77
2023-05-21T03:35:51.449Z,21.05
2023-05-21T03:38:21.306Z,21.05
2023-05-21T03:40:50.450Z,22.50
2023-05-21T03:43:18.915Z,21.90
2023-05-21T03:45:47.391Z,22.48
2023-05-21T03:48:15.945Z,21.85
2023-05-21T03:50:44.409Z,22.02
2023-05-21T03:53:13.862Z,21.98
2023-05-21T03:55:43.687Z,22.23
2023-05-21T03:58:12.167Z,22.15
2023-05-21T04:00:42.432Z,22.33
2023-05-21T04:03:11.819Z,22.65
2023-05-21T04:05:40.537Z,23.02
2023-05-21T04:08:09.070Z,22.02
2023-05-21T04:10:37.513Z,23.17
2023-05-21T04:13:07.432Z,22.85
2023-05-21T04:15:36.140Z,22.63
2023-05-21T04:18:05.155Z,22.23
2023-05-21T04:20:33.717Z,22.98
2023-05-21T04:23:03.105Z,23.17
2023-05-21T04:25:31.618Z,22.35
2023-05-21T04:28:00.075Z,22.77
2023-05-21T04:30:30.381Z,23.15
2023-05-21T04:33:00.272Z,23.95
2023-05-21T04:35:28.998Z,24.02
2023-05-21T04:37:57.504Z,22.27
2023-05-21T04:40:26.808Z,23.55
2023-05-21T04:42:55.358Z,23.13
2023-05-21T04:45:24.653Z,22.67
2023-05-21T04:47:54.583Z,24.08
2023-05-21T04:50:23.276Z,24.27
2023-05-21T04:52:51.834Z,23.50
2023-05-21T04:55:21.178Z,23.13
2023-05-21T04:57:49.651Z,23.73
2023-05-21T05:00:18.734Z,22.95
2023-05-21T05:02:47.311Z,23.20
2023-05-21T05:05:17.240Z,22.00
2023-05-21T05:07:45.819Z,22.90
2023-05-21T05:10:14.370Z,24.73
2023-05-21T05:12:42.834Z,21.35
2023-05-21T05:15:11.954Z,21.77
2023-05-21T05:17:40.806Z,22.40
2023-05-21T05:20:10.757Z,23.73
2023-05-21T05:22:40.706Z,22.85
2023-05-21T05:25:09.904Z,23.90
2023-05-21T05:27:38.727Z,23.25
2023-05-21T05:30:08.739Z,22.80
2023-05-21T05:32:37.184Z,22.60
2023-05-21T05:35:06.752Z,22.92
2023-05-21T05:37:35.226Z,23.23
2023-05-21T05:40:05.805Z,21.60
2023-05-21T05:42:34.341Z,22.42
2023-05-21T05:45:02.804Z,21.98
2023-05-21T05:47:31.533Z,21.58
2023-05-21T05:50:00.050Z,21.60
2023-05-21T05:52:28.495Z,22.10
2023-05-21T05:54:56.959Z,21.58
2023-05-21T05:57:26.790Z,21.75
2023-05-21T05:59:55.259Z,21.35
2023-05-21T06:02:23.818Z,22.27
2023-05-21T06:04:52.448Z,20.55
2023-05-21T06:07:20.912Z,20.75
2023-05-21T06:09:49.367Z,19.88
2023-05-21T06:12:17.845Z,20.15
2023-05-21T06:14:49.050Z,20.52
2023-05-21T06:17:17.568Z,19.38
2023-05-21T06:19:46.235Z,20.50
2023-05-21T06:22:14.706Z,18.67
2023-05-21T06:24:43.197Z,19.40
2023-05-21T06:27:11.889Z,19.90
2023-05-21T06:29:40.949Z,19.52
2023-05-21T06:32:10.949Z,20.10
2023-05-21T06:34:39.453Z,19.80
2023-05-21T06:37:07.872Z,19.60
2023-05-21T06:39:36.366Z,19.15
2023-05-21T06:42:04.981Z,19.27
2023-05-21T06:44:33.436Z,19.25
2023-05-21T06:47:01.920Z,19.05
2023-05-21T06:49:33.604Z,18.08
2023-05-21T06:52:02.493Z,19.20
2023-05-21T06:54:30.982Z,18.42
2023-05-21T06:56:59.624Z,19.27
2023-05-21T06:59:28.097Z,18.25
2023-05-21T07:01:56.559Z,19.27
2023-05-21T07:04:25.221Z,17.67
2023-05-21T07:06:55.051Z,18.17
2023-05-21T07:09:23.519Z,18.05
2023-05-21T07:11:53.002Z,17.70
2023-05-21T07:14:21.462Z,18.55
2023-05-21T07:16:50.017Z,18.40
2023-05-21T07:19:18.598Z,18.00
2023-05-21T07:21:47.511Z,17.60
2023-05-21T07:24:17.353Z,17.67
2023-05-21T07:26:45.882Z,17.58
2023-05-21T07:29:14.384Z,16.83
2023-05-21T07:31:42.967Z,16.48
2023-05-21T07:34:11.471Z,17.50
2023-05-21T07:36:39.970Z,17.08
2023-05-21T07:39:08.445Z,17.08
2023-05-21T07:41:38.271Z,16.55
2023-05-21T07:44:06.727Z,16.17
2023-05-21T07:46:35.241Z,16.38
2023-05-21T07:49:03.828Z,16.58
2023-05-21T07:51:32.759Z,15.40
2023-05-21T07:54:01.343Z,15.70
2023-05-21T07:56:29.945Z,15.50
2023-05-21T07:58:59.759Z,15.32
2023-05-21T08:01:29.640Z,14.68
2023-05-21T08:04:00.719Z,15.05
2023-05-21T08:06:29.416Z,15.13
2023-05-21T08:08:57.886Z,14.13
2023-05-21T08:11:27.006Z,14.30
2023-05-21T08:13:55.602Z,14.98
2023-05-21T08:16:25.497Z,15.15
2023-05-21T08:18:54.095Z,14.63
2023-05-21T08:21:22.674Z,14.43
2023-05-21T08:23:54.122Z,14.10
2023-05-21T08:26:22.553Z,13.45
2023-05-21T08:28:51.237Z,13.50
2023-05-21T08:31:19.861Z,14.07
2023-05-21T08:33:53.236Z,13.85
2023-05-21T08:36:21.876Z,14.98
2023-05-21T08:38:50.786Z,12.70
2023-05-21T08:41:23.013Z,12.50
2023-05-21T08:43:56.649Z,12.88
2023-05-21T08:46:25.796Z,11.70
2023-05-21T08:48:56.413Z,11.82
2023-05-21T08:51:25.064Z,11.77
2023-05-21T08:53:53.889Z,11.63
2023-05-21T08:56:22.766Z,11.82
2023-05-21T08:58:53.115Z,11.27
2023-05-21T09:01:24.717Z,11.70
2023-05-21T09:04:04.828Z,12.25
2023-05-21T09:06:38.608Z,12.13
2023-05-21T09:09:15.400Z,11.77
2023-05-21T09:11:43.854Z,10.85
2023-05-21T09:14:12.906Z,10.88
2023-05-21T09:16:41.803Z,11.48
2023-05-21T09:19:11.716Z,11.68
2023-05-21T09:21:40.757Z,11.63
2023-05-21T09:24:11.716Z,11.80
2023-05-21T09:26:43.835Z,11.23
2023-05-21T09:29:14.366Z,11.20
2023-05-21T09:31:45.269Z,10.07
2023-05-21T09:34:15.319Z,11.07
2023-05-21T09:36:44.399Z,9.93
2023-05-21T09:39:16.534Z,10.45
2023-05-21T09:41:45.348Z,10.65
2023-05-21T09:44:14.047Z,10.52
2023-05-21T09:46:43.175Z,9.70
2023-05-21T09:49:24.680Z,9.63
2023-05-21T09:51:57.164Z,9.93
2023-05-21T09:54:26.064Z,9.32
2023-05-21T09:56:54.977Z,9.27
2023-05-21T09:59:23.501Z,9.38
2023-05-21T10:01:53.306Z,9.27
2023-05-21T10:04:24.694Z,9.43
2023-05-21T10:06:53.819Z,9.55
2023-05-21T10:09:22.704Z,9.35
2023-05-21T10:11:55.708Z,9.00
2023-05-21T10:14:27.002Z,8.87
2023-05-21T10:16:55.857Z,9.20
2023-05-21T10:19:26.323Z,9.60
2023-05-21T10:21:57.230Z,10.18
2023-05-21T10:24:26.857Z,9.82
2023-05-21T10:26:55.816Z,9.05
2023-05-21T10:29:24.498Z,9.40
2023-05-21T10:31:53.952Z,9.18
2023-05-21T10:34:24.535Z,9.38
2023-05-21T10:36:57.231Z,9.25
2023-05-21T10:39:26.724Z,8.80
2023-05-21T10:42:04.913Z,8.70
2023-05-21T10:44:45.432Z,8.90
2023-05-21T10:47:46.221Z,8.02
2023-05-21T10:50:35.604Z,8.63
2023-05-21T10:53:15.124Z,7.60
2023-05-21T10:55:55.255Z,7.93
2023-05-21T10:58:40.866Z,7.85
2023-05-21T11:01:09.992Z,7.53
2023-05-21T11:03:39.308Z,7.72
2023-05-21T11:06:08.620Z,7.15
2023-05-21T11:08:39.690Z,7.85
2023-05-21T11:11:08.517Z,8.10
2023-05-21T11:13:49.273Z,7.55
2023-05-21T11:16:18.782Z,7.32
2023-05-21T11:19:01.748Z,7.47
2023-05-21T11:21:33.634Z,7.22
2023-05-21T11:24:10.831Z,7.15
2023-05-21T11:27:04.925Z,7.35
2023-05-21T11:32:17.594Z,7.32
2023-05-21T11:34:47.319Z,6.80
2023-05-21T11:37:30.074Z,7.25
2023-05-21T11:40:17.976Z,6.65
2023-05-21T11:42:51.190Z,6.82
2023-05-21T11:45:20.915Z,7.10
2023-05-21T11:47:50.385Z,7.05
2023-05-21T11:50:19.694Z,7.15
2023-05-21T11:52:49.736Z,7.57
2023-05-21T11:55:25.975Z,6.32
2023-05-21T11:57:55.893Z,6.53
2023-05-21T12:00:24.557Z,20.90
2023-05-21T12:02:55.790Z,7.35
2023-05-21T12:05:27.135Z,6.38
2023-05-21T12:07:56.674Z,6.55
2023-05-21T12:10:26.659Z,6.63
2023-05-21T12:12:57.279Z,6.25
2023-05-21T12:15:27.900Z,6.22
2023-05-21T12:17:57.228Z,8.07
2023-05-21T12:20:28.208Z,6.43
2023-05-21T12:22:58.977Z,8.77
2023-05-21T12:25:29.976Z,6.45
2023-05-21T12:27:59.061Z,6.40
2023-05-21T12:30:27.742Z,5.85
2023-05-21T12:33:00.615Z,6.18
2023-05-21T12:35:29.227Z,8.50
2023-05-21T12:37:57.855Z,6.07
2023-05-21T12:40:38.543Z,8.38
2023-05-21T12:43:08.458Z,6.95
2023-05-21T12:45:39.476Z,6.13
2023-05-21T12:48:08.367Z,6.90
2023-05-21T12:50:40.884Z,6.47
2023-05-21T12:53:10.668Z,6.47
2023-05-21T12:55:41.188Z,6.38
2023-05-21T12:58:09.761Z,6.53
2023-05-21T13:00:38.597Z,16.90
2023-05-21T13:03:07.657Z,13.65
2023-05-21T13:05:36.568Z,6.50
2023-05-21T13:08:05.332Z,6.63
2023-05-21T13:10:33.892Z,6.60
2023-05-21T13:13:03.761Z,7.00
2023-05-21T13:15:32.284Z,7.25
2023-05-21T13:18:01.338Z,7.28
2023-05-21T13:20:30.280Z,19.65
2023-05-21T13:22:58.842Z,21.95
2023-05-21T13:25:29.559Z,6.85
2023-05-21T13:27:59.039Z,9.65
2023-05-21T13:30:29.081Z,7.75
2023-05-21T13:32:57.697Z,7.38
2023-05-21T13:35:26.430Z,7.05
2023-05-21T13:37:55.232Z,6.15
2023-05-21T13:40:24.143Z,6.50
2023-05-21T13:42:52.759Z,6.90
2023-05-21T13:45:24.319Z,6.70
2023-05-21T13:47:54.173Z,6.70
2023-05-21T13:50:22.773Z,7.15
2023-05-21T13:52:51.402Z,6.80
2023-05-21T13:55:20.293Z,6.07
2023-05-21T13:57:48.798Z,6.43
2023-05-21T14:00:17.416Z,6.72
2023-05-21T14:02:46.208Z,6.50
2023-05-21T14:05:16.177Z,6.13
2023-05-21T14:07:45.416Z,6.20
2023-05-21T14:10:13.956Z,7.13
2023-05-21T14:12:42.449Z,6.05
2023-05-21T14:15:11.993Z,5.45
2023-05-21T14:17:42.456Z,7.05
2023-05-21T14:20:12.006Z,6.50
2023-05-21T14:22:41.838Z,6.25
2023-05-21T14:25:10.848Z,7.47
2023-05-21T14:27:39.347Z,7.57
2023-05-21T14:30:09.151Z,7.18
2023-05-21T14:32:37.778Z,6.72
2023-05-21T14:35:06.986Z,6.68
2023-05-21T14:37:35.565Z,9.32
2023-05-21T14:40:07.973Z,8.07
2023-05-21T14:42:36.791Z,6.55
2023-05-21T14:45:18.215Z,6.05
2023-05-21T14:47:48.827Z,5.93
2023-05-21T14:50:18.485Z,6.10
2023-05-21T14:52:47.220Z,5.95
2023-05-21T14:55:18.491Z,6.50
2023-05-21T14:57:47.064Z,7.72
2023-05-21T15:00:16.145Z,5.90
2023-05-21T15:02:45.010Z,6.72
2023-05-21T15:05:13.516Z,6.68
2023-05-21T15:07:42.091Z,6.10
2023-05-21T15:10:11.437Z,6.18
2023-05-21T15:12:42.006Z,6.00
2023-05-21T15:15:12.422Z,6.13
2023-05-21T15:17:40.982Z,5.70
2023-05-21T15:20:10.355Z,20.20
2023-05-21T15:22:38.901Z,5.75
2023-05-21T15:25:08.025Z,8.45
2023-05-21T15:27:36.534Z,5.60
2023-05-21T15:30:07.886Z,5.78
2023-05-21T15:32:36.465Z,5.55
2023-05-21T15:35:05.295Z,6.47
2023-05-21T15:37:34.274Z,6.47
2023-05-21T15:40:03.045Z,9.23
2023-05-21T15:42:31.902Z,5.20
2023-05-21T15:45:00.704Z,5.45
2023-05-21T15:47:30.664Z,5.35
2023-05-21T15:50:00.481Z,5.38
2023-05-21T15:52:29.124Z,6.55
2023-05-21T15:54:57.596Z,5.80
2023-05-21T15:57:26.137Z,5.90
2023-05-21T15:59:54.651Z,5.88
2023-05-21T16:02:23.721Z,4.53
2023-05-21T16:04:53.578Z,5.82
2023-05-21T16:07:24.202Z,5.68
2023-05-21T16:09:52.667Z,5.75
2023-05-21T16:12:21.272Z,5.63
2023-05-21T16:14:50.886Z,6.07
2023-05-21T16:17:19.762Z,5.82
2023-05-21T16:19:48.428Z,8.93
2023-05-21T16:22:20.316Z,5.85
2023-05-21T16:24:49.074Z,6.07
2023-05-21T16:27:17.661Z,7.15
2023-05-21T16:29:46.248Z,5.95
2023-05-21T16:32:15.045Z,6.72
2023-05-21T16:34:43.588Z,5.95
2023-05-21T16:37:12.074Z,5.30
2023-05-21T16:39:42.115Z,5.80
2023-05-21T16:42:10.610Z,5.68
2023-05-21T16:44:39.349Z,5.50
2023-05-21T16:47:07.905Z,5.60
2023-05-21T16:49:36.375Z,5.70
2023-05-21T16:52:05.337Z,5.60
2023-05-21T16:54:34.714Z,5.43
2023-05-21T16:57:04.809Z,7.72
2023-05-21T16:59:33.310Z,7.30
2023-05-21T17:02:01.866Z,5.30
2023-05-21T17:04:30.708Z,5.15
2023-05-21T17:06:59.167Z,5.97
2023-05-21T17:09:27.629Z,5.78
2023-05-21T17:11:56.113Z,6.32
2023-05-21T17:14:34.364Z,6.28
2023-05-21T17:17:03.524Z,5.32
2023-05-21T17:19:32.184Z,5.65
2023-05-21T17:22:00.990Z,5.80
2023-05-21T17:24:29.486Z,5.43
2023-05-21T17:26:58.024Z,5.53
2023-05-21T17:29:27.903Z,5.32
2023-05-21T17:31:56.677Z,5.57
2023-05-21T17:34:29.319Z,6.00
2023-05-21T17:36:59.521Z,5.55
2023-05-21T17:39:28.039Z,5.40
2023-05-21T17:41:57.323Z,4.82
2023-05-21T17:44:27.268Z,4.60
2023-05-21T17:46:56.750Z,4.88
2023-05-21T17:49:25.334Z,5.38
2023-05-21T17:51:54.778Z,4.97
2023-05-21T17:54:23.401Z,5.32
2023-05-21T17:56:52.015Z,5.18
2023-05-21T17:59:21.216Z,4.85
2023-05-21T18:01:51.240Z,4.85
2023-05-21T18:04:19.891Z,5.40
2023-05-21T18:06:48.387Z,5.63
2023-05-21T18:09:16.805Z,5.20
2023-05-21T18:11:45.425Z,5.15
2023-05-21T18:14:13.878Z,5.50
2023-05-21T18:16:42.530Z,5.20
2023-05-21T18:19:13.096Z,5.40
2023-05-21T18:21:41.602Z,5.47
2023-05-21T18:24:10.104Z,5.55
2023-05-21T18:26:38.614Z,5.20
2023-05-21T18:29:07.109Z,6.10
2023-05-21T18:31:35.688Z,6.07
2023-05-21T18:34:04.155Z,5.57
2023-05-21T18:36:38.921Z,5.20
2023-05-21T18:39:08.542Z,5.45
2023-05-21T18:41:37.473Z,5.32
2023-05-21T18:44:07.015Z,4.70
2023-05-21T18:46:35.590Z,5.72
2023-05-21T18:49:04.274Z,5.30
2023-05-21T18:51:34.169Z,5.57
2023-05-21T18:54:02.638Z,5.45
2023-05-21T18:56:31.179Z,5.43
2023-05-21T18:58:59.617Z,5.20
2023-05-21T19:01:28.216Z,5.03
2023-05-21T19:03:56.804Z,5.85
2023-05-21T19:06:27.713Z,5.82
2023-05-21T19:08:57.650Z,5.22
2023-05-21T19:11:30.938Z,5.22
2023-05-21T19:14:00.333Z,5.38
2023-05-21T19:16:28.899Z,5.03
2023-05-21T19:18:57.561Z,6.50
2023-05-21T19:21:26.351Z,5.05
2023-05-21T19:23:54.870Z,6.47
2023-05-21T19:26:24.982Z,5.10
2023-05-21T19:28:54.732Z,5.45
2023-05-21T19:31:23.713Z,6.03
2023-05-21T19:33:52.599Z,6.00
2023-05-21T19:36:22.327Z,5.88
2023-05-21T19:38:51.436Z,5.53
2023-05-21T19:41:22.678Z,5.70
2023-05-21T19:43:52.511Z,5.30
2023-05-21T19:46:21.274Z,5.40
2023-05-21T19:48:50.136Z,5.53
2023-05-21T19:51:18.696Z,5.53
2023-05-21T19:53:47.172Z,5.68
2023-05-21T19:56:15.996Z,5.32
2023-05-21T19:58:47.171Z,5.38
2023-05-21T20:01:17.920Z,6.65
2023-05-21T20:03:46.573Z,5.65
2023-05-21T20:06:19.035Z,5.80
2023-05-21T20:08:47.877Z,5.80
2023-05-21T20:11:16.559Z,5.28
2023-05-21T20:13:48.548Z,5.75
2023-05-21T20:16:19.007Z,4.88
2023-05-21T20:18:47.857Z,5.65
2023-05-21T20:21:18.438Z,5.80
2023-05-21T20:23:47.386Z,5.80
2023-05-21T20:26:16.593Z,5.28
2023-05-21T20:28:45.699Z,5.57
2023-05-21T20:31:14.447Z,5.10
2023-05-21T20:33:44.352Z,5.22
2023-05-21T20:36:15.337Z,5.30
2023-05-21T20:38:45.424Z,5.45
2023-05-21T20:41:14.401Z,5.72
2023-05-21T20:43:45.404Z,5.57
2023-05-21T20:46:13.921Z,5.50
2023-05-21T20:48:43.631Z,5.20
2023-05-21T20:51:13.537Z,5.72
2023-05-21T20:53:42.073Z,5.70
2023-05-21T20:56:11.720Z,5.38
2023-05-21T20:58:40.475Z,5.90
2023-05-21T21:01:10.612Z,5.45
2023-05-21T21:03:41.503Z,5.72
2023-05-21T21:06:10.592Z,5.47
2023-05-21T21:08:41.263Z,5.65
2023-05-21T21:11:09.767Z,5.40
2023-05-21T21:13:38.245Z,5.80
2023-05-21T21:16:07.846Z,5.20
2023-05-21T21:18:36.426Z,4.85
2023-05-21T21:21:05.145Z,5.38
2023-05-21T21:23:33.852Z,6.03
2023-05-21T21:26:03.847Z,5.97
2023-05-21T21:28:32.321Z,5.45
2023-05-21T21:31:00.841Z,6.00
2023-05-21T21:33:29.356Z,6.10
2023-05-21T21:35:57.882Z,5.80
2023-05-21T21:38:26.402Z,5.60
2023-05-21T21:40:55.155Z,5.07
2023-05-21T21:43:25.142Z,6.10
2023-05-21T21:45:53.621Z,6.93
2023-05-21T21:48:22.092Z,5.88
2023-05-21T21:50:50.703Z,5.40
2023-05-21T21:53:19.168Z,5.38
2023-05-21T21:55:47.628Z,6.22
2023-05-21T21:58:16.111Z,5.78
2023-05-21T22:00:46.096Z,5.47
2023-05-21T22:03:15.009Z,5.70
2023-05-21T22:05:43.697Z,5.60
2023-05-21T22:08:12.446Z,5.32
2023-05-21T22:10:41.127Z,5.25
2023-05-21T22:13:09.818Z,5.22
2023-05-21T22:15:38.435Z,4.88
2023-05-21T22:18:10.342Z,5.00
2023-05-21T22:20:39.042Z,5.15
2023-05-21T22:23:07.667Z,5.15
2023-05-21T22:25:36.244Z,5.10
2023-05-21T22:28:04.847Z,4.60
2023-05-21T22:30:33.478Z,4.97
2023-05-21T22:33:02.391Z,4.82
2023-05-21T22:35:32.578Z,4.93
2023-05-21T22:38:01.744Z,5.55
2023-05-21T22:40:30.262Z,4.50
2023-05-21T22:42:59.161Z,4.82
2023-05-21T22:45:28.563Z,4.50
2023-05-21T22:48:01.644Z,4.55
2023-05-21T22:50:32.936Z,4.87
2023-05-21T22:53:02.917Z,4.78
2023-05-21T22:55:31.410Z,4.82
2023-05-21T22:57:59.968Z,5.10
2023-05-21T23:00:28.490Z,4.32
2023-05-21T23:02:57.227Z,4.75
2023-05-21T23:05:25.869Z,4.50
2023-05-21T23:07:54.490Z,4.60
2023-05-21T23:10:24.356Z,4.60
2023-05-21T23:12:52.857Z,4.55
2023-05-21T23:15:21.706Z,4.82
2023-05-21T23:17:50.203Z,4.50
2023-05-21T23:20:18.877Z,4.53
2023-05-21T23:22:47.445Z,4.70
2023-05-21T23:25:15.965Z,4.78
2023-05-21T23:27:46.035Z,4.60
2023-05-21T23:30:14.755Z,4.65
2023-05-21T23:32:43.406Z,4.78
2023-05-21T23:35:14.376Z,4.80
2023-05-21T23:37:43.347Z,4.95
2023-05-21T23:40:13.142Z,4.28
2023-05-21T23:42:41.593Z,4.60
2023-05-21T23:45:12.428Z,4.63
2023-05-21T23:47:41.131Z,4.45
2023-05-21T23:50:10.540Z,4.60
2023-05-21T23:52:39.098Z,4.80
2023-05-21T23:55:08.717Z,4.60
2023-05-21T23:57:37.357Z,4.13
